sensor_id;sensor_type;location;lat;lon;timestamp;P1;durP1;ratioP1;P2;durP2;ratioP2
15712;SDS011;7957;51.608;6.916;2022-12-18T00:02:01;70.17;;;46.63;;
15712;SDS011;7957;51.608;6.916;2022-12-18T00:04:28;72.43;;;47.00;;
15712;SDS011;7957;51.608;6.916;2022-12-18T00:06:55;72.57;;;48.33;;
15712;SDS011;7957;51.608;6.916;2022-12-18T00:09:22;71.70;;;48.37;;
15712;SDS011;7957;51.608;6.916;2022-12-18T00:11:49;77.37;;;48.93;;
15712;SDS011;7957;51.608;6.916;2022-12-18T00:14:18;73.63;;;49.90;;
15712;SDS011;7957;51.608;6.916;2022-12-18T00:16:45;69.63;;;47.87;;
15712;SDS011;7957;51.608;6.916;2022-12-18T00:19:13;70.47;;;48.07;;
15712;SDS011;7957;51.608;6.916;2022-12-18T00:21:41;72.30;;;47.60;;
15712;SDS011;7957;51.608;6.916;2022-12-18T00:24:09;72.87;;;47.83;;
15712;SDS011;7957;51.608;6.916;2022-12-18T00:26:37;70.67;;;46.70;;
15712;SDS011;7957;51.608;6.916;2022-12-18T00:29:05;69.17;;;46.13;;
15712;SDS011;7957;51.608;6.916;2022-12-18T00:31:35;67.80;;;45.00;;
15712;SDS011;7957;51.608;6.916;2022-12-18T00:34:03;68.50;;;46.50;;
15712;SDS011;7957;51.608;6.916;2022-12-18T00:36:31;70.30;;;45.70;;
15712;SDS011;7957;51.608;6.916;2022-12-18T00:38:59;68.53;;;46.13;;
15712;SDS011;7957;51.608;6.916;2022-12-18T00:41:28;69.03;;;46.17;;
15712;SDS011;7957;51.608;6.916;2022-12-18T00:44:12;69.60;;;46.17;;
15712;SDS011;7957;51.608;6.916;2022-12-18T00:46:42;68.50;;;45.97;;
15712;SDS011;7957;51.608;6.916;2022-12-18T00:49:10;69.50;;;46.67;;
15712;SDS011;7957;51.608;6.916;2022-12-18T00:51:38;70.40;;;46.07;;
15712;SDS011;7957;51.608;6.916;2022-12-18T00:54:05;72.63;;;46.93;;
15712;SDS011;7957;51.608;6.916;2022-12-18T00:56:32;67.83;;;45.30;;
15712;SDS011;7957;51.608;6.916;2022-12-18T00:59:01;71.40;;;46.10;;
15712;SDS011;7957;51.608;6.916;2022-12-18T01:01:28;67.27;;;44.67;;
15712;SDS011;7957;51.608;6.916;2022-12-18T01:03:57;69.33;;;46.27;;
15712;SDS011;7957;51.608;6.916;2022-12-18T01:06:24;66.90;;;44.90;;
15712;SDS011;7957;51.608;6.916;2022-12-18T01:08:51;73.70;;;46.33;;
15712;SDS011;7957;51.608;6.916;2022-12-18T01:11:18;77.27;;;47.30;;
15712;SDS011;7957;51.608;6.916;2022-12-18T01:13:46;74.43;;;45.67;;
15712;SDS011;7957;51.608;6.916;2022-12-18T01:16:14;69.83;;;47.23;;
15712;SDS011;7957;51.608;6.916;2022-12-18T01:18:42;68.30;;;45.07;;
15712;SDS011;7957;51.608;6.916;2022-12-18T01:21:13;73.87;;;47.23;;
15712;SDS011;7957;51.608;6.916;2022-12-18T01:23:44;70.40;;;45.10;;
15712;SDS011;7957;51.608;6.916;2022-12-18T01:26:12;70.33;;;44.93;;
15712;SDS011;7957;51.608;6.916;2022-12-18T01:28:40;68.63;;;44.37;;
15712;SDS011;7957;51.608;6.916;2022-12-18T01:31:11;71.47;;;45.87;;
15712;SDS011;7957;51.608;6.916;2022-12-18T01:33:39;69.83;;;46.03;;
15712;SDS011;7957;51.608;6.916;2022-12-18T01:36:07;69.87;;;45.30;;
15712;SDS011;7957;51.608;6.916;2022-12-18T01:38:36;70.90;;;44.93;;
15712;SDS011;7957;51.608;6.916;2022-12-18T01:41:02;66.10;;;43.40;;
15712;SDS011;7957;51.608;6.916;2022-12-18T01:43:47;68.57;;;43.90;;
15712;SDS011;7957;51.608;6.916;2022-12-18T01:46:16;70.40;;;43.23;;
15712;SDS011;7957;51.608;6.916;2022-12-18T01:48:45;66.07;;;43.60;;
15712;SDS011;7957;51.608;6.916;2022-12-18T01:51:15;68.47;;;45.17;;
15712;SDS011;7957;51.608;6.916;2022-12-18T01:53:44;69.57;;;44.83;;
15712;SDS011;7957;51.608;6.916;2022-12-18T01:56:12;68.33;;;44.53;;
15712;SDS011;7957;51.608;6.916;2022-12-18T01:58:43;66.10;;;43.60;;
15712;SDS011;7957;51.608;6.916;2022-12-18T02:01:19;68.57;;;45.03;;
15712;SDS011;7957;51.608;6.916;2022-12-18T02:03:47;69.90;;;45.17;;
15712;SDS011;7957;51.608;6.916;2022-12-18T02:06:15;66.10;;;44.23;;
15712;SDS011;7957;51.608;6.916;2022-12-18T02:08:50;71.30;;;44.73;;
15712;SDS011;7957;51.608;6.916;2022-12-18T02:11:27;69.00;;;43.13;;
15712;SDS011;7957;51.608;6.916;2022-12-18T02:14:07;61.00;;;41.70;;
15712;SDS011;7957;51.608;6.916;2022-12-18T02:16:44;68.87;;;43.53;;
15712;SDS011;7957;51.608;6.916;2022-12-18T02:19:21;70.10;;;45.07;;
15712;SDS011;7957;51.608;6.916;2022-12-18T02:22:06;71.33;;;45.03;;
15712;SDS011;7957;51.608;6.916;2022-12-18T02:24:48;66.63;;;43.67;;
15712;SDS011;7957;51.608;6.916;2022-12-18T02:27:32;68.37;;;43.43;;
15712;SDS011;7957;51.608;6.916;2022-12-18T02:30:01;63.93;;;41.80;;
15712;SDS011;7957;51.608;6.916;2022-12-18T02:32:30;67.87;;;43.93;;
15712;SDS011;7957;51.608;6.916;2022-12-18T02:35:01;67.30;;;43.50;;
15712;SDS011;7957;51.608;6.916;2022-12-18T02:37:30;65.77;;;42.83;;
15712;SDS011;7957;51.608;6.916;2022-12-18T02:40:00;66.17;;;44.03;;
15712;SDS011;7957;51.608;6.916;2022-12-18T02:42:29;67.40;;;43.53;;
15712;SDS011;7957;51.608;6.916;2022-12-18T02:44:59;67.43;;;43.87;;
15712;SDS011;7957;51.608;6.916;2022-12-18T02:47:27;72.20;;;45.43;;
15712;SDS011;7957;51.608;6.916;2022-12-18T02:49:59;68.10;;;44.10;;
15712;SDS011;7957;51.608;6.916;2022-12-18T02:52:34;66.00;;;43.13;;
15712;SDS011;7957;51.608;6.916;2022-12-18T02:55:10;73.57;;;45.53;;
15712;SDS011;7957;51.608;6.916;2022-12-18T02:57:48;71.70;;;45.87;;
15712;SDS011;7957;51.608;6.916;2022-12-18T03:00:21;68.63;;;43.57;;
15712;SDS011;7957;51.608;6.916;2022-12-18T03:02:51;71.63;;;44.67;;
15712;SDS011;7957;51.608;6.916;2022-12-18T03:05:28;67.97;;;42.73;;
15712;SDS011;7957;51.608;6.916;2022-12-18T03:08:00;68.20;;;42.83;;
15712;SDS011;7957;51.608;6.916;2022-12-18T03:10:32;68.57;;;45.53;;
15712;SDS011;7957;51.608;6.916;2022-12-18T03:13:08;68.67;;;43.83;;
15712;SDS011;7957;51.608;6.916;2022-12-18T03:15:38;64.83;;;43.43;;
15712;SDS011;7957;51.608;6.916;2022-12-18T03:18:12;65.83;;;42.20;;
15712;SDS011;7957;51.608;6.916;2022-12-18T03:20:43;69.27;;;43.73;;
15712;SDS011;7957;51.608;6.916;2022-12-18T03:23:13;66.20;;;42.80;;
15712;SDS011;7957;51.608;6.916;2022-12-18T03:25:44;67.77;;;43.17;;
15712;SDS011;7957;51.608;6.916;2022-12-18T03:28:14;66.47;;;41.47;;
15712;SDS011;7957;51.608;6.916;2022-12-18T03:30:44;66.47;;;43.30;;
15712;SDS011;7957;51.608;6.916;2022-12-18T03:33:14;67.57;;;44.03;;
15712;SDS011;7957;51.608;6.916;2022-12-18T03:35:45;68.10;;;43.87;;
15712;SDS011;7957;51.608;6.916;2022-12-18T03:38:13;64.13;;;40.97;;
15712;SDS011;7957;51.608;6.916;2022-12-18T03:40:43;68.70;;;44.70;;
15712;SDS011;7957;51.608;6.916;2022-12-18T03:43:20;66.30;;;42.03;;
15712;SDS011;7957;51.608;6.916;2022-12-18T03:45:59;65.97;;;41.13;;
15712;SDS011;7957;51.608;6.916;2022-12-18T03:48:34;68.10;;;42.10;;
15712;SDS011;7957;51.608;6.916;2022-12-18T03:51:05;63.97;;;42.63;;
15712;SDS011;7957;51.608;6.916;2022-12-18T03:53:37;64.70;;;41.77;;
15712;SDS011;7957;51.608;6.916;2022-12-18T03:56:11;63.70;;;41.63;;
15712;SDS011;7957;51.608;6.916;2022-12-18T03:58:43;63.17;;;41.33;;
15712;SDS011;7957;51.608;6.916;2022-12-18T04:01:12;62.33;;;41.53;;
15712;SDS011;7957;51.608;6.916;2022-12-18T04:03:41;66.37;;;42.47;;
15712;SDS011;7957;51.608;6.916;2022-12-18T04:06:10;69.43;;;42.07;;
15712;SDS011;7957;51.608;6.916;2022-12-18T04:08:38;68.13;;;43.33;;
15712;SDS011;7957;51.608;6.916;2022-12-18T04:11:06;66.53;;;42.10;;
15712;SDS011;7957;51.608;6.916;2022-12-18T04:13:34;64.80;;;40.23;;
15712;SDS011;7957;51.608;6.916;2022-12-18T04:16:04;61.70;;;40.47;;
15712;SDS011;7957;51.608;6.916;2022-12-18T04:18:32;59.97;;;38.80;;
15712;SDS011;7957;51.608;6.916;2022-12-18T04:20:59;64.30;;;38.97;;
15712;SDS011;7957;51.608;6.916;2022-12-18T04:23:26;59.63;;;40.00;;
15712;SDS011;7957;51.608;6.916;2022-12-18T04:25:53;59.03;;;39.73;;
15712;SDS011;7957;51.608;6.916;2022-12-18T04:28:20;60.30;;;39.27;;
15712;SDS011;7957;51.608;6.916;2022-12-18T04:30:47;59.00;;;39.03;;
15712;SDS011;7957;51.608;6.916;2022-12-18T04:33:16;59.87;;;38.60;;
15712;SDS011;7957;51.608;6.916;2022-12-18T04:35:43;60.27;;;38.77;;
15712;SDS011;7957;51.608;6.916;2022-12-18T04:38:11;65.67;;;39.40;;
15712;SDS011;7957;51.608;6.916;2022-12-18T04:40:38;58.00;;;38.57;;
15712;SDS011;7957;51.608;6.916;2022-12-18T04:43:05;59.50;;;38.00;;
15712;SDS011;7957;51.608;6.916;2022-12-18T04:45:32;59.53;;;39.23;;
15712;SDS011;7957;51.608;6.916;2022-12-18T04:47:59;57.77;;;38.73;;
15712;SDS011;7957;51.608;6.916;2022-12-18T04:50:29;59.90;;;38.37;;
15712;SDS011;7957;51.608;6.916;2022-12-18T04:52:56;55.97;;;37.57;;
15712;SDS011;7957;51.608;6.916;2022-12-18T04:55:23;61.27;;;38.53;;
15712;SDS011;7957;51.608;6.916;2022-12-18T04:57:50;58.10;;;37.73;;
15712;SDS011;7957;51.608;6.916;2022-12-18T05:00:17;61.20;;;38.73;;
15712;SDS011;7957;51.608;6.916;2022-12-18T05:02:45;59.80;;;39.50;;
15712;SDS011;7957;51.608;6.916;2022-12-18T05:05:12;62.37;;;37.97;;
15712;SDS011;7957;51.608;6.916;2022-12-18T05:07:40;57.07;;;38.43;;
15712;SDS011;7957;51.608;6.916;2022-12-18T05:10:07;59.97;;;37.83;;
15712;SDS011;7957;51.608;6.916;2022-12-18T05:12:35;62.87;;;38.00;;
15712;SDS011;7957;51.608;6.916;2022-12-18T05:15:23;57.20;;;36.07;;
15712;SDS011;7957;51.608;6.916;2022-12-18T05:17:50;56.43;;;36.57;;
15712;SDS011;7957;51.608;6.916;2022-12-18T05:20:17;58.10;;;37.97;;
15712;SDS011;7957;51.608;6.916;2022-12-18T05:22:46;61.97;;;39.07;;
15712;SDS011;7957;51.608;6.916;2022-12-18T05:25:13;59.33;;;38.47;;
15712;SDS011;7957;51.608;6.916;2022-12-18T05:27:40;56.80;;;37.83;;
15712;SDS011;7957;51.608;6.916;2022-12-18T05:30:07;59.67;;;38.60;;
15712;SDS011;7957;51.608;6.916;2022-12-18T05:32:35;59.57;;;39.80;;
15712;SDS011;7957;51.608;6.916;2022-12-18T05:35:02;58.60;;;39.07;;
15712;SDS011;7957;51.608;6.916;2022-12-18T05:37:30;56.93;;;36.87;;
15712;SDS011;7957;51.608;6.916;2022-12-18T05:39:58;58.20;;;38.40;;
15712;SDS011;7957;51.608;6.916;2022-12-18T05:42:25;56.47;;;36.90;;
15712;SDS011;7957;51.608;6.916;2022-12-18T05:44:52;58.60;;;38.37;;
15712;SDS011;7957;51.608;6.916;2022-12-18T05:47:19;58.87;;;37.53;;
15712;SDS011;7957;51.608;6.916;2022-12-18T05:49:46;56.93;;;37.77;;
15712;SDS011;7957;51.608;6.916;2022-12-18T05:52:13;57.00;;;36.57;;
15712;SDS011;7957;51.608;6.916;2022-12-18T05:54:40;51.73;;;34.63;;
15712;SDS011;7957;51.608;6.916;2022-12-18T05:57:09;54.17;;;34.97;;
15712;SDS011;7957;51.608;6.916;2022-12-18T05:59:36;56.00;;;36.23;;
15712;SDS011;7957;51.608;6.916;2022-12-18T06:02:03;53.57;;;34.47;;
15712;SDS011;7957;51.608;6.916;2022-12-18T06:04:30;54.43;;;35.63;;
15712;SDS011;7957;51.608;6.916;2022-12-18T06:06:57;49.57;;;34.53;;
15712;SDS011;7957;51.608;6.916;2022-12-18T06:09:24;55.40;;;35.37;;
15712;SDS011;7957;51.608;6.916;2022-12-18T06:11:51;56.97;;;35.10;;
15712;SDS011;7957;51.608;6.916;2022-12-18T06:14:19;53.53;;;35.67;;
15712;SDS011;7957;51.608;6.916;2022-12-18T06:16:46;52.53;;;35.73;;
15712;SDS011;7957;51.608;6.916;2022-12-18T06:19:14;53.43;;;35.03;;
15712;SDS011;7957;51.608;6.916;2022-12-18T06:21:42;53.03;;;34.87;;
15712;SDS011;7957;51.608;6.916;2022-12-18T06:24:09;53.97;;;34.47;;
15712;SDS011;7957;51.608;6.916;2022-12-18T06:26:37;50.17;;;34.33;;
15712;SDS011;7957;51.608;6.916;2022-12-18T06:29:04;47.87;;;33.60;;
15712;SDS011;7957;51.608;6.916;2022-12-18T06:31:33;51.50;;;33.67;;
15712;SDS011;7957;51.608;6.916;2022-12-18T06:34:01;49.30;;;33.80;;
15712;SDS011;7957;51.608;6.916;2022-12-18T06:36:29;53.07;;;34.70;;
15712;SDS011;7957;51.608;6.916;2022-12-18T06:38:56;51.67;;;33.70;;
15712;SDS011;7957;51.608;6.916;2022-12-18T06:41:23;47.93;;;32.07;;
15712;SDS011;7957;51.608;6.916;2022-12-18T06:43:50;50.10;;;32.93;;
15712;SDS011;7957;51.608;6.916;2022-12-18T06:46:17;46.93;;;31.53;;
15712;SDS011;7957;51.608;6.916;2022-12-18T06:48:50;50.10;;;32.77;;
15712;SDS011;7957;51.608;6.916;2022-12-18T06:51:18;50.50;;;33.30;;
15712;SDS011;7957;51.608;6.916;2022-12-18T06:53:48;45.13;;;31.90;;
15712;SDS011;7957;51.608;6.916;2022-12-18T06:56:15;44.97;;;31.17;;
15712;SDS011;7957;51.608;6.916;2022-12-18T06:58:43;46.40;;;31.40;;
15712;SDS011;7957;51.608;6.916;2022-12-18T07:01:10;45.00;;;30.80;;
15712;SDS011;7957;51.608;6.916;2022-12-18T07:03:38;46.67;;;31.60;;
15712;SDS011;7957;51.608;6.916;2022-12-18T07:06:11;45.37;;;30.73;;
15712;SDS011;7957;51.608;6.916;2022-12-18T07:08:40;45.70;;;32.00;;
15712;SDS011;7957;51.608;6.916;2022-12-18T07:11:09;45.50;;;30.87;;
15712;SDS011;7957;51.608;6.916;2022-12-18T07:13:37;46.77;;;31.87;;
15712;SDS011;7957;51.608;6.916;2022-12-18T07:16:05;45.67;;;30.93;;
15712;SDS011;7957;51.608;6.916;2022-12-18T07:18:33;44.10;;;30.17;;
15712;SDS011;7957;51.608;6.916;2022-12-18T07:21:04;43.23;;;30.73;;
15712;SDS011;7957;51.608;6.916;2022-12-18T07:23:33;44.37;;;29.43;;
15712;SDS011;7957;51.608;6.916;2022-12-18T07:26:02;42.70;;;29.50;;
15712;SDS011;7957;51.608;6.916;2022-12-18T07:28:29;46.67;;;30.67;;
15712;SDS011;7957;51.608;6.916;2022-12-18T07:30:56;47.40;;;31.40;;
15712;SDS011;7957;51.608;6.916;2022-12-18T07:33:24;48.93;;;31.57;;
15712;SDS011;7957;51.608;6.916;2022-12-18T07:35:51;41.60;;;29.90;;
15712;SDS011;7957;51.608;6.916;2022-12-18T07:38:18;43.30;;;29.83;;
15712;SDS011;7957;51.608;6.916;2022-12-18T07:40:46;46.50;;;31.77;;
15712;SDS011;7957;51.608;6.916;2022-12-18T07:43:13;42.97;;;29.93;;
15712;SDS011;7957;51.608;6.916;2022-12-18T07:45:41;43.13;;;29.33;;
15712;SDS011;7957;51.608;6.916;2022-12-18T07:48:08;44.93;;;29.80;;
15712;SDS011;7957;51.608;6.916;2022-12-18T07:50:36;43.80;;;30.30;;
15712;SDS011;7957;51.608;6.916;2022-12-18T07:53:03;42.50;;;29.93;;
15712;SDS011;7957;51.608;6.916;2022-12-18T07:55:30;44.33;;;29.60;;
15712;SDS011;7957;51.608;6.916;2022-12-18T07:58:01;43.17;;;30.27;;
15712;SDS011;7957;51.608;6.916;2022-12-18T08:00:28;40.33;;;27.83;;
15712;SDS011;7957;51.608;6.916;2022-12-18T08:02:55;39.73;;;28.87;;
15712;SDS011;7957;51.608;6.916;2022-12-18T08:05:22;42.00;;;28.20;;
15712;SDS011;7957;51.608;6.916;2022-12-18T08:07:50;39.17;;;27.30;;
15712;SDS011;7957;51.608;6.916;2022-12-18T08:10:17;41.90;;;29.10;;
15712;SDS011;7957;51.608;6.916;2022-12-18T08:12:44;38.77;;;28.00;;
15712;SDS011;7957;51.608;6.916;2022-12-18T08:15:13;43.60;;;27.87;;
15712;SDS011;7957;51.608;6.916;2022-12-18T08:17:39;38.93;;;27.90;;
15712;SDS011;7957;51.608;6.916;2022-12-18T08:20:07;37.80;;;27.03;;
15712;SDS011;7957;51.608;6.916;2022-12-18T08:22:35;37.23;;;26.57;;
15712;SDS011;7957;51.608;6.916;2022-12-18T08:25:04;39.53;;;27.13;;
15712;SDS011;7957;51.608;6.916;2022-12-18T08:27:31;37.43;;;26.00;;
15712;SDS011;7957;51.608;6.916;2022-12-18T08:29:58;39.37;;;27.40;;
15712;SDS011;7957;51.608;6.916;2022-12-18T08:32:27;36.77;;;26.73;;
15712;SDS011;7957;51.608;6.916;2022-12-18T08:34:54;36.17;;;25.80;;
15712;SDS011;7957;51.608;6.916;2022-12-18T08:37:21;37.70;;;26.33;;
15712;SDS011;7957;51.608;6.916;2022-12-18T08:39:48;35.90;;;25.27;;
15712;SDS011;7957;51.608;6.916;2022-12-18T08:42:15;33.90;;;24.87;;
15712;SDS011;7957;51.608;6.916;2022-12-18T08:44:59;36.20;;;25.90;;
15712;SDS011;7957;51.608;6.916;2022-12-18T08:47:28;33.83;;;24.37;;
15712;SDS011;7957;51.608;6.916;2022-12-18T08:49:55;37.70;;;25.53;;
15712;SDS011;7957;51.608;6.916;2022-12-18T08:52:21;36.03;;;24.53;;
15712;SDS011;7957;51.608;6.916;2022-12-18T08:54:48;35.17;;;24.63;;
15712;SDS011;7957;51.608;6.916;2022-12-18T08:57:15;32.77;;;24.30;;
15712;SDS011;7957;51.608;6.916;2022-12-18T08:59:42;32.57;;;23.87;;
15712;SDS011;7957;51.608;6.916;2022-12-18T09:02:09;33.37;;;23.97;;
15712;SDS011;7957;51.608;6.916;2022-12-18T09:04:38;31.87;;;23.20;;
15712;SDS011;7957;51.608;6.916;2022-12-18T09:07:05;32.17;;;23.37;;
15712;SDS011;7957;51.608;6.916;2022-12-18T09:09:32;33.13;;;23.90;;
15712;SDS011;7957;51.608;6.916;2022-12-18T09:11:59;30.60;;;23.60;;
15712;SDS011;7957;51.608;6.916;2022-12-18T09:14:26;31.87;;;24.00;;
15712;SDS011;7957;51.608;6.916;2022-12-18T09:16:53;35.40;;;23.33;;
15712;SDS011;7957;51.608;6.916;2022-12-18T09:19:20;33.20;;;24.37;;
15712;SDS011;7957;51.608;6.916;2022-12-18T09:21:49;31.90;;;22.20;;
15712;SDS011;7957;51.608;6.916;2022-12-18T09:24:16;29.37;;;22.77;;
15712;SDS011;7957;51.608;6.916;2022-12-18T09:26:43;28.37;;;21.80;;
15712;SDS011;7957;51.608;6.916;2022-12-18T09:29:11;32.40;;;22.63;;
15712;SDS011;7957;51.608;6.916;2022-12-18T09:31:37;29.60;;;22.20;;
15712;SDS011;7957;51.608;6.916;2022-12-18T09:34:05;29.20;;;22.40;;
15712;SDS011;7957;51.608;6.916;2022-12-18T09:36:32;28.53;;;21.03;;
15712;SDS011;7957;51.608;6.916;2022-12-18T09:39:01;26.70;;;20.33;;
15712;SDS011;7957;51.608;6.916;2022-12-18T09:41:34;29.17;;;21.73;;
15712;SDS011;7957;51.608;6.916;2022-12-18T09:44:10;27.90;;;20.77;;
15712;SDS011;7957;51.608;6.916;2022-12-18T09:46:45;30.00;;;21.70;;
15712;SDS011;7957;51.608;6.916;2022-12-18T09:49:16;27.43;;;21.03;;
15712;SDS011;7957;51.608;6.916;2022-12-18T09:51:45;26.63;;;20.43;;
15712;SDS011;7957;51.608;6.916;2022-12-18T09:54:18;28.57;;;21.97;;
15712;SDS011;7957;51.608;6.916;2022-12-18T09:56:48;26.67;;;20.60;;
15712;SDS011;7957;51.608;6.916;2022-12-18T09:59:18;25.57;;;20.33;;
15712;SDS011;7957;51.608;6.916;2022-12-18T10:01:48;27.33;;;19.80;;
15712;SDS011;7957;51.608;6.916;2022-12-18T10:04:16;25.77;;;19.67;;
15712;SDS011;7957;51.608;6.916;2022-12-18T10:06:44;26.13;;;19.53;;
15712;SDS011;7957;51.608;6.916;2022-12-18T10:09:19;27.60;;;20.03;;
15712;SDS011;7957;51.608;6.916;2022-12-18T10:11:55;24.60;;;19.43;;
15712;SDS011;7957;51.608;6.916;2022-12-18T10:14:30;25.03;;;19.57;;
15712;SDS011;7957;51.608;6.916;2022-12-18T10:17:05;26.30;;;19.50;;
15712;SDS011;7957;51.608;6.916;2022-12-18T10:19:40;24.33;;;18.47;;
15712;SDS011;7957;51.608;6.916;2022-12-18T10:22:18;24.30;;;18.83;;
15712;SDS011;7957;51.608;6.916;2022-12-18T10:24:54;22.57;;;18.33;;
15712;SDS011;7957;51.608;6.916;2022-12-18T10:27:25;25.03;;;18.50;;
15712;SDS011;7957;51.608;6.916;2022-12-18T10:29:53;24.83;;;19.00;;
15712;SDS011;7957;51.608;6.916;2022-12-18T10:32:21;23.10;;;18.37;;
15712;SDS011;7957;51.608;6.916;2022-12-18T10:34:51;22.77;;;18.43;;
15712;SDS011;7957;51.608;6.916;2022-12-18T10:37:19;24.30;;;17.97;;
15712;SDS011;7957;51.608;6.916;2022-12-18T10:40:04;23.53;;;17.90;;
15712;SDS011;7957;51.608;6.916;2022-12-18T10:42:36;22.37;;;17.57;;
15712;SDS011;7957;51.608;6.916;2022-12-18T10:45:11;23.20;;;18.23;;
15712;SDS011;7957;51.608;6.916;2022-12-18T10:47:41;22.23;;;17.80;;
15712;SDS011;7957;51.608;6.916;2022-12-18T10:50:17;24.27;;;18.13;;
15712;SDS011;7957;51.608;6.916;2022-12-18T10:52:52;23.27;;;17.87;;
15712;SDS011;7957;51.608;6.916;2022-12-18T10:55:26;22.67;;;17.53;;
15712;SDS011;7957;51.608;6.916;2022-12-18T10:58:02;23.63;;;18.50;;
15712;SDS011;7957;51.608;6.916;2022-12-18T11:00:42;21.17;;;17.40;;
15712;SDS011;7957;51.608;6.916;2022-12-18T11:03:28;22.27;;;17.40;;
15712;SDS011;7957;51.608;6.916;2022-12-18T11:06:07;21.67;;;17.50;;
15712;SDS011;7957;51.608;6.916;2022-12-18T11:08:36;20.67;;;16.87;;
15712;SDS011;7957;51.608;6.916;2022-12-18T11:11:06;31.38;;;23.13;;
15712;SDS011;7957;51.608;6.916;2022-12-18T11:13:42;28.37;;;22.70;;
15712;SDS011;7957;51.608;6.916;2022-12-18T11:16:24;27.90;;;22.70;;
15712;SDS011;7957;51.608;6.916;2022-12-18T11:18:52;28.67;;;22.67;;
15712;SDS011;7957;51.608;6.916;2022-12-18T11:21:19;26.77;;;22.20;;
15712;SDS011;7957;51.608;6.916;2022-12-18T11:23:47;29.80;;;21.70;;
15712;SDS011;7957;51.608;6.916;2022-12-18T11:26:17;26.77;;;21.53;;
15712;SDS011;7957;51.608;6.916;2022-12-18T11:28:46;30.03;;;23.10;;
15712;SDS011;7957;51.608;6.916;2022-12-18T11:31:17;28.10;;;22.67;;
15712;SDS011;7957;51.608;6.916;2022-12-18T11:33:48;32.20;;;25.63;;
15712;SDS011;7957;51.608;6.916;2022-12-18T11:36:21;31.43;;;22.30;;
15712;SDS011;7957;51.608;6.916;2022-12-18T11:38:49;29.83;;;22.07;;
15712;SDS011;7957;51.608;6.916;2022-12-18T11:41:21;25.67;;;21.20;;
15712;SDS011;7957;51.608;6.916;2022-12-18T11:44:13;27.47;;;22.37;;
15712;SDS011;7957;51.608;6.916;2022-12-18T11:46:45;34.17;;;22.80;;
15712;SDS011;7957;51.608;6.916;2022-12-18T11:49:19;31.63;;;23.23;;
15712;SDS011;7957;51.608;6.916;2022-12-18T11:51:51;32.10;;;28.03;;
15712;SDS011;7957;51.608;6.916;2022-12-18T11:54:24;35.33;;;28.03;;
15712;SDS011;7957;51.608;6.916;2022-12-18T11:56:55;30.67;;;25.37;;
15712;SDS011;7957;51.608;6.916;2022-12-18T11:59:32;28.40;;;22.33;;
15712;SDS011;7957;51.608;6.916;2022-12-18T12:02:11;27.97;;;23.93;;
15712;SDS011;7957;51.608;6.916;2022-12-18T12:05:01;28.50;;;22.43;;
15712;SDS011;7957;51.608;6.916;2022-12-18T12:07:46;25.03;;;20.63;;
15712;SDS011;7957;51.608;6.916;2022-12-18T12:10:26;22.10;;;19.13;;
15712;SDS011;7957;51.608;6.916;2022-12-18T12:13:12;26.57;;;19.80;;
15712;SDS011;7957;51.608;6.916;2022-12-18T12:15:50;22.77;;;19.40;;
15712;SDS011;7957;51.608;6.916;2022-12-18T12:18:28;20.30;;;17.77;;
15712;SDS011;7957;51.608;6.916;2022-12-18T12:21:03;20.77;;;15.97;;
15712;SDS011;7957;51.608;6.916;2022-12-18T12:23:37;19.93;;;16.83;;
15712;SDS011;7957;51.608;6.916;2022-12-18T12:26:10;20.20;;;17.00;;
15712;SDS011;7957;51.608;6.916;2022-12-18T12:28:50;21.27;;;17.57;;
15712;SDS011;7957;51.608;6.916;2022-12-18T12:31:26;18.90;;;16.20;;
15712;SDS011;7957;51.608;6.916;2022-12-18T12:34:08;21.73;;;16.60;;
15712;SDS011;7957;51.608;6.916;2022-12-18T12:36:46;21.13;;;16.67;;
15712;SDS011;7957;51.608;6.916;2022-12-18T12:39:31;18.87;;;15.53;;
15712;SDS011;7957;51.608;6.916;2022-12-18T12:42:01;18.40;;;16.13;;
15712;SDS011;7957;51.608;6.916;2022-12-18T12:44:51;19.67;;;16.30;;
15712;SDS011;7957;51.608;6.916;2022-12-18T12:47:23;19.00;;;15.80;;
15712;SDS011;7957;51.608;6.916;2022-12-18T12:49:53;18.30;;;15.90;;
15712;SDS011;7957;51.608;6.916;2022-12-18T12:52:24;19.60;;;15.47;;
15712;SDS011;7957;51.608;6.916;2022-12-18T12:54:56;18.90;;;15.13;;
15712;SDS011;7957;51.608;6.916;2022-12-18T12:57:27;17.47;;;14.63;;
15712;SDS011;7957;51.608;6.916;2022-12-18T13:00:03;19.57;;;15.60;;
15712;SDS011;7957;51.608;6.916;2022-12-18T13:02:35;17.87;;;15.07;;
15712;SDS011;7957;51.608;6.916;2022-12-18T13:05:11;18.20;;;15.30;;
15712;SDS011;7957;51.608;6.916;2022-12-18T13:07:47;16.03;;;14.30;;
15712;SDS011;7957;51.608;6.916;2022-12-18T13:10:24;17.07;;;14.53;;
15712;SDS011;7957;51.608;6.916;2022-12-18T13:12:57;16.80;;;14.43;;
15712;SDS011;7957;51.608;6.916;2022-12-18T13:15:27;17.07;;;13.93;;
15712;SDS011;7957;51.608;6.916;2022-12-18T13:18:04;15.87;;;14.17;;
15712;SDS011;7957;51.608;6.916;2022-12-18T13:20:38;18.13;;;15.07;;
15712;SDS011;7957;51.608;6.916;2022-12-18T13:23:19;18.97;;;15.53;;
15712;SDS011;7957;51.608;6.916;2022-12-18T13:25:54;19.87;;;15.27;;
15712;SDS011;7957;51.608;6.916;2022-12-18T13:28:22;17.77;;;14.93;;
15712;SDS011;7957;51.608;6.916;2022-12-18T13:30:55;17.33;;;15.10;;
15712;SDS011;7957;51.608;6.916;2022-12-18T13:45:37;18.60;;;15.17;;
15712;SDS011;7957;51.608;6.916;2022-12-18T13:48:19;16.43;;;14.67;;
15712;SDS011;7957;51.608;6.916;2022-12-18T13:50:52;20.30;;;16.30;;
15712;SDS011;7957;51.608;6.916;2022-12-18T13:53:24;19.07;;;15.07;;
15712;SDS011;7957;51.608;6.916;2022-12-18T13:55:55;22.13;;;16.33;;
15712;SDS011;7957;51.608;6.916;2022-12-18T13:58:22;20.93;;;15.93;;
15712;SDS011;7957;51.608;6.916;2022-12-18T14:00:49;17.97;;;15.73;;
15712;SDS011;7957;51.608;6.916;2022-12-18T14:03:19;18.97;;;15.77;;
15712;SDS011;7957;51.608;6.916;2022-12-18T14:05:52;19.63;;;16.83;;
15712;SDS011;7957;51.608;6.916;2022-12-18T14:08:21;21.00;;;17.43;;
15712;SDS011;7957;51.608;6.916;2022-12-18T14:10:52;23.57;;;17.53;;
15712;SDS011;7957;51.608;6.916;2022-12-18T14:13:21;21.97;;;17.60;;
15712;SDS011;7957;51.608;6.916;2022-12-18T14:15:52;23.13;;;18.77;;
15712;SDS011;7957;51.608;6.916;2022-12-18T14:18:22;20.17;;;17.97;;
15712;SDS011;7957;51.608;6.916;2022-12-18T14:20:51;20.73;;;17.93;;
15712;SDS011;7957;51.608;6.916;2022-12-18T14:23:27;21.27;;;18.57;;
15712;SDS011;7957;51.608;6.916;2022-12-18T14:25:56;21.73;;;18.33;;
15712;SDS011;7957;51.608;6.916;2022-12-18T14:28:23;21.83;;;18.23;;
15712;SDS011;7957;51.608;6.916;2022-12-18T14:30:51;21.67;;;17.87;;
15712;SDS011;7957;51.608;6.916;2022-12-18T14:33:22;21.90;;;18.37;;
15712;SDS011;7957;51.608;6.916;2022-12-18T14:35:55;22.53;;;18.63;;
15712;SDS011;7957;51.608;6.916;2022-12-18T14:38:24;22.03;;;18.40;;
15712;SDS011;7957;51.608;6.916;2022-12-18T14:40:56;22.67;;;18.73;;
15712;SDS011;7957;51.608;6.916;2022-12-18T14:43:24;21.30;;;18.33;;
15712;SDS011;7957;51.608;6.916;2022-12-18T14:45:52;19.67;;;17.37;;
15712;SDS011;7957;51.608;6.916;2022-12-18T14:48:20;22.13;;;18.70;;
15712;SDS011;7957;51.608;6.916;2022-12-18T14:50:58;23.33;;;18.27;;
15712;SDS011;7957;51.608;6.916;2022-12-18T14:53:32;24.47;;;19.43;;
15712;SDS011;7957;51.608;6.916;2022-12-18T14:56:02;22.40;;;19.03;;
15712;SDS011;7957;51.608;6.916;2022-12-18T14:58:37;23.63;;;19.37;;
15712;SDS011;7957;51.608;6.916;2022-12-18T15:01:04;20.77;;;18.00;;
15712;SDS011;7957;51.608;6.916;2022-12-18T15:03:34;22.60;;;19.07;;
15712;SDS011;7957;51.608;6.916;2022-12-18T15:06:14;20.70;;;18.50;;